Time;durP1;ratioP1;P1;durP2;ratioP2;P2;SDS_P1;SDS_P2;PMS_P1;PMS_P2;Temp;Humidity;BMP_temperature;BMP_pressure;BME280_temperature;BME280_humidity;BME280_pressure;Samples;Min_cycle;Max_cycle;Signal;HPM_P1;HPM_P2
2023/05/14 04:01:55;;;;;;;6.60;5.93;;;12.50;99.90;;;;;;5215741;23;20571;-73
2023/05/14 04:04:21;;;;;;;7.50;6.17;;;12.40;99.90;;;;;;4958448;29;20043;-73
2023/05/14 04:06:46;;;;;;;6.97;5.87;;;12.40;99.90;;;;;;4957005;29;20128;-73
2023/05/14 04:09:12;;;;;;;7.93;5.73;;;12.40;99.90;;;;;;4952441;29;20027;-73
2023/05/14 04:11:38;;;;;;;7.40;5.80;;;12.40;99.90;;;;;;4953176;28;20310;-73
2023/05/14 04:14:03;;;;;;;8.90;6.03;;;12.50;99.90;;;;;;4938296;29;20028;-73
2023/05/14 04:16:29;;;;;;;7.50;6.57;;;12.40;99.90;;;;;;4953367;29;20027;-73
2023/05/14 04:18:54;;;;;;;7.60;5.93;;;12.40;99.90;;;;;;4937127;29;20268;-74
2023/05/14 04:21:20;;;;;;;8.63;5.57;;;12.40;99.90;;;;;;4936749;29;20096;-73
2023/05/14 04:23:45;;;;;;;6.73;6.03;;;12.40;99.90;;;;;;4936539;29;20114;-73
2023/05/14 04:26:11;;;;;;;9.23;6.10;;;12.40;99.90;;;;;;4937972;29;20115;-72
2023/05/14 04:28:36;;;;;;;7.43;5.73;;;12.30;99.90;;;;;;4938011;29;20032;-73
2023/05/14 04:31:02;;;;;;;7.67;5.63;;;12.30;99.90;;;;;;4938255;29;20032;-73
2023/05/14 04:33:28;;;;;;;7.63;6.30;;;12.30;99.90;;;;;;4936821;29;20485;-72
2023/05/14 04:35:53;;;;;;;6.87;6.07;;;12.30;99.90;;;;;;4937952;29;20042;-73
2023/05/14 04:38:19;;;;;;;7.67;5.93;;;12.20;99.90;;;;;;4941611;29;20102;-73
2023/05/14 04:40:44;;;;;;;9.13;5.73;;;12.20;99.90;;;;;;4956646;28;20357;-74
2023/05/14 04:43:10;;;;;;;6.32;5.57;;;12.10;99.90;;;;;;4955464;29;20078;-73
2023/05/14 04:45:36;;;;;;;7.40;5.93;;;12.20;99.90;;;;;;4956999;29;20118;-73
2023/05/14 04:48:03;;;;;;;7.27;5.73;;;12.10;99.90;;;;;;4957123;29;20038;-73
2023/05/14 04:50:28;;;;;;;9.73;5.90;;;12.20;99.90;;;;;;4955453;28;20042;-72
2023/05/14 04:52:54;;;;;;;7.37;5.57;;;12.20;99.90;;;;;;4955317;29;20024;-73
2023/05/14 04:55:20;;;;;;;6.65;5.47;;;12.20;99.90;;;;;;4957046;29;20553;-72
2023/05/14 04:57:46;;;;;;;7.78;6.05;;;12.10;99.90;;;;;;4955272;29;20110;-72
2023/05/14 05:00:12;;;;;;;9.10;5.57;;;12.20;99.90;;;;;;4955181;28;20082;-72
2023/05/14 05:02:37;;;;;;;6.95;5.55;;;12.20;99.90;;;;;;4956168;29;20038;-73
2023/05/14 05:05:03;;;;;;;6.07;5.10;;;12.10;99.90;;;;;;4956254;29;20031;-72
2023/05/14 05:07:29;;;;;;;6.47;5.57;;;12.10;99.90;;;;;;4956233;28;20031;-72
2023/05/14 05:09:54;;;;;;;6.73;5.33;;;12.10;99.90;;;;;;4955988;29;20078;-72
2023/05/14 05:12:20;;;;;;;6.80;5.57;;;12.10;99.90;;;;;;4956482;28;20082;-73
2023/05/14 05:14:46;;;;;;;7.68;5.60;;;12.10;99.90;;;;;;4955906;29;20078;-73
2023/05/14 05:17:11;;;;;;;6.07;5.17;;;12.20;99.90;;;;;;4956495;29;20032;-73
2023/05/14 05:19:37;;;;;;;6.90;5.17;;;12.20;99.90;;;;;;4954992;29;20771;-72
2023/05/14 05:22:03;;;;;;;7.90;5.47;;;12.20;99.90;;;;;;4954956;28;20028;-73
2023/05/14 05:24:28;;;;;;;6.00;5.00;;;12.30;99.90;;;;;;4954648;29;20031;-73
2023/05/14 05:26:55;;;;;;;7.03;5.53;;;12.20;99.90;;;;;;4948192;29;20034;-73
2023/05/14 05:29:21;;;;;;;8.77;4.57;;;12.30;99.90;;;;;;4943571;29;20028;-73
2023/05/14 05:31:47;;;;;;;;;;;12.30;99.90;;;;;;4960483;28;20031;-73
2023/05/14 05:34:13;;;;;;;8.23;4.97;;;12.40;99.90;;;;;;4964759;29;19911;-72
2023/05/14 05:36:38;;;;;;;8.03;5.73;;;12.40;99.90;;;;;;4965120;28;20054;-73
2023/05/14 05:39:04;;;;;;;6.00;5.40;;;12.50;99.90;;;;;;4961625;29;20027;-73
2023/05/14 05:41:29;;;;;;;6.97;5.27;;;12.70;99.90;;;;;;4954648;29;20019;-73
2023/05/14 05:43:54;;;;;;;6.40;5.10;;;12.80;99.90;;;;;;4955851;29;20019;-72
2023/05/14 05:46:20;;;;;;;6.80;4.83;;;13.00;99.90;;;;;;4955016;29;20035;-73
2023/05/14 05:48:46;;;;;;;7.17;5.50;;;13.10;99.90;;;;;;4956164;28;20032;-73
2023/05/14 05:51:13;;;;;;;6.87;5.00;;;13.10;99.90;;;;;;4954527;29;20609;-73
2023/05/14 05:53:38;;;;;;;7.50;5.38;;;13.10;99.90;;;;;;4954384;29;20027;-74
2023/05/14 05:56:05;;;;;;;8.80;5.40;;;13.20;99.90;;;;;;4954828;29;20456;-73
2023/05/14 05:58:32;;;;;;;6.65;5.00;;;13.30;99.90;;;;;;4955289;29;20055;-73
2023/05/14 06:00:58;;;;;;;7.15;5.38;;;13.30;99.90;;;;;;4956018;28;20035;-73
2023/05/14 06:03:23;;;;;;;8.23;5.28;;;13.30;99.90;;;;;;4955877;28;20084;-73
2023/05/14 06:05:50;;;;;;;8.90;5.50;;;13.30;99.90;;;;;;4955654;28;20464;-72
2023/05/14 06:08:15;;;;;;;7.20;5.35;;;13.30;99.90;;;;;;4955577;29;20023;-73
2023/05/14 06:10:41;;;;;;;7.93;5.50;;;13.30;99.90;;;;;;4954497;28;20126;-73
2023/05/14 06:13:06;;;;;;;7.90;5.50;;;13.40;99.90;;;;;;4955692;29;20062;-73
2023/05/14 06:15:32;;;;;;;5.80;5.07;;;13.50;99.90;;;;;;4951119;29;20036;-74
2023/05/14 06:17:57;;;;;;;5.77;4.63;;;13.50;99.90;;;;;;4934881;29;20264;-74
2023/05/14 06:20:23;;;;;;;6.37;5.50;;;13.60;99.90;;;;;;4936158;29;20058;-75
2023/05/14 06:22:48;;;;;;;7.90;5.57;;;13.70;99.90;;;;;;4934926;29;20028;-76
2023/05/14 06:25:14;;;;;;;8.50;5.33;;;13.80;99.90;;;;;;4935031;29;20269;-76
2023/05/14 06:27:39;;;;;;;6.80;4.77;;;13.90;99.90;;;;;;4936006;29;20036;-75
2023/05/14 06:30:06;;;;;;;9.00;5.17;;;14.10;99.90;;;;;;4935549;29;20032;-75
2023/05/14 06:32:31;;;;;;;7.00;4.82;;;14.30;99.90;;;;;;4936541;29;20034;-70
2023/05/14 06:34:57;;;;;;;6.80;4.95;;;14.50;99.90;;;;;;4953678;29;20113;-70
2023/05/14 06:37:23;;;;;;;5.93;5.20;;;14.70;99.90;;;;;;4943586;29;20463;-70
2023/05/14 06:39:49;;;;;;;5.93;4.63;;;14.70;99.90;;;;;;4935766;29;20024;-71
2023/05/14 06:42:18;;;;;;;6.50;4.88;;;14.80;99.90;;;;;;4936607;29;20028;-72
2023/05/14 06:44:44;;;;;;;7.35;5.38;;;14.90;99.90;;;;;;4935823;29;20047;-72
2023/05/14 06:47:09;;;;;;;;;;;14.90;99.90;;;;;;4936563;29;20481;-74
2023/05/14 06:49:35;;;;;;;6.32;4.95;;;15.10;99.90;;;;;;4938569;29;19907;-73
2023/05/14 06:52:01;;;;;;;5.10;4.60;;;15.20;99.90;;;;;;4938223;29;20031;-73
2023/05/14 06:54:26;;;;;;;5.53;4.93;;;15.40;99.90;;;;;;4949798;29;20037;-74
2023/05/14 06:56:52;;;;;;;6.10;4.90;;;15.60;99.90;;;;;;4954956;29;20388;-71
2023/05/14 06:59:18;;;;;;;6.20;4.90;;;15.70;99.90;;;;;;4958850;29;20436;-71
2023/05/14 07:01:43;;;;;;;6.23;5.03;;;15.90;99.90;;;;;;4957693;28;20031;-73
2023/05/14 07:04:09;;;;;;;5.80;4.85;;;16.10;99.90;;;;;;4957351;29;20024;-70
2023/05/14 07:06:35;;;;;;;7.32;5.05;;;16.10;99.90;;;;;;4957160;29;20186;-71
2023/05/14 07:09:01;;;;;;;6.13;5.53;;;15.90;99.90;;;;;;4958385;29;20043;-72
2023/05/14 07:11:26;;;;;;;7.80;5.15;;;15.90;99.90;;;;;;4956908;28;20279;-72
2023/05/14 07:13:52;;;;;;;7.78;5.05;;;15.90;99.90;;;;;;4958783;29;20024;-70
2023/05/14 07:16:18;;;;;;;5.90;5.17;;;16.00;99.90;;;;;;4958390;29;20083;-70
2023/05/14 07:18:44;;;;;;;6.95;5.32;;;16.00;99.90;;;;;;4958372;29;20058;-73
2023/05/14 07:21:10;;;;;;;;;;;16.20;99.90;;;;;;4957473;28;20032;-68
2023/05/14 07:23:37;;;;;;;5.63;4.57;;;16.40;99.90;;;;;;4958702;28;19965;-73
2023/05/14 07:26:06;;;;;;;6.53;4.95;;;16.40;99.90;;;;;;4958129;29;20023;-71
2023/05/14 07:28:32;;;;;;;8.98;4.97;;;16.50;99.90;;;;;;4957768;28;20032;-69
2023/05/14 07:30:58;;;;;;;6.80;4.75;;;16.50;99.90;;;;;;4958187;28;20031;-69
2023/05/14 07:33:24;;;;;;;6.35;5.43;;;16.40;99.90;;;;;;4958004;29;20028;-70
2023/05/14 07:35:50;;;;;;;7.47;5.28;;;16.40;99.90;;;;;;4957604;28;20031;-73
2023/05/14 07:38:18;;;;;;;5.97;4.53;;;16.40;99.90;;;;;;4957867;28;20023;-74
2023/05/14 07:40:44;;;;;;;7.35;5.10;;;16.40;99.90;;;;;;4957595;28;20476;-74
2023/05/14 07:43:09;;;;;;;5.78;4.55;;;16.40;99.90;;;;;;4957843;29;20034;-75
2023/05/14 07:45:37;;;;;;;6.82;5.18;;;16.30;99.90;;;;;;4956098;29;20031;-73
2023/05/14 07:48:03;;;;;;;6.90;5.40;;;16.20;99.90;;;;;;4956491;29;20027;-74
2023/05/14 07:50:28;;;;;;;8.18;5.28;;;16.20;99.90;;;;;;4956129;29;20030;-72
2023/05/14 07:52:54;;;;;;;6.15;5.00;;;16.20;99.90;;;;;;4957392;29;20035;-74
2023/05/14 07:55:19;;;;;;;8.03;4.93;;;16.30;99.90;;;;;;4955255;29;20499;-69
2023/05/14 07:57:45;;;;;;;7.43;4.50;;;16.60;99.90;;;;;;4957538;29;20601;-69
2023/05/14 08:00:11;;;;;;;6.28;4.40;;;17.90;99.90;;;;;;4956373;28;20118;-73
2023/05/14 08:02:36;;;;;;;5.50;4.30;;;20.10;99.90;;;;;;4956150;29;20027;-71
2023/05/14 08:05:03;;;;;;;5.65;3.90;;;22.00;98.40;;;;;;4957837;29;20173;-72
2023/05/14 08:07:29;;;;;;;4.45;3.88;;;23.20;95.00;;;;;;4956321;29;20106;-72
2023/05/14 08:09:54;;;;;;;;;;;23.70;93.50;;;;;;4956433;29;20468;-74
2023/05/14 08:12:20;;;;;;;4.28;3.88;;;23.70;92.60;;;;;;4955792;28;19949;-72
2023/05/14 08:14:46;;;;;;;6.07;4.30;;;23.60;92.50;;;;;;4955634;29;20030;-71
2023/05/14 08:17:11;;;;;;;4.60;4.03;;;24.50;91.00;;;;;;4955554;29;20071;-72
2023/05/14 08:19:37;;;;;;;4.70;4.18;;;26.30;88.60;;;;;;4955927;29;20027;-72
2023/05/14 08:22:03;;;;;;;4.30;3.90;;;28.20;83.40;;;;;;4956047;29;20054;-70
2023/05/14 08:24:28;;;;;;;4.22;3.55;;;29.30;77.80;;;;;;4955586;29;20110;-71
2023/05/14 08:26:54;;;;;;;5.15;3.80;;;29.20;75.60;;;;;;4956827;29;20133;-75
2023/05/14 08:29:20;;;;;;;3.70;3.28;;;30.30;72.50;;;;;;4957196;28;20030;-71
2023/05/14 08:31:47;;;;;;;3.58;3.28;;;30.50;71.40;;;;;;4956680;28;20023;-69
2023/05/14 08:34:12;;;;;;;3.85;3.47;;;31.40;69.70;;;;;;4956832;28;20388;-70
2023/05/14 08:36:38;;;;;;;3.97;3.25;;;32.50;67.30;;;;;;4956840;28;20098;-71
2023/05/14 08:39:06;;;;;;;3.78;3.00;;;32.90;65.30;;;;;;4955220;29;20023;-71
2023/05/14 08:41:32;;;;;;;6.25;5.63;;;32.30;64.20;;;;;;4955260;28;20428;-68
2023/05/14 08:44:03;;;;;;;3.42;3.13;;;30.80;64.10;;;;;;4956587;29;20055;-71
2023/05/14 08:46:30;;;;;;;3.50;3.20;;;30.90;64.10;;;;;;4954458;29;20388;-71
2023/05/14 08:48:59;;;;;;;3.50;3.20;;;31.70;63.10;;;;;;4953099;29;20023;-71
2023/05/14 08:51:26;;;;;;;3.70;2.95;;;31.50;63.40;;;;;;4938017;28;20026;-69
2023/05/14 08:53:52;;;;;;;3.20;2.90;;;32.70;60.70;;;;;;4934573;29;20106;-70
2023/05/14 08:56:18;;;;;;;3.88;3.28;;;32.50;60.10;;;;;;4936853;29;20107;-70
2023/05/14 08:58:44;;;;;;;3.70;3.20;;;33.00;59.40;;;;;;4938882;29;20027;-71
2023/05/14 09:01:10;;;;;;;3.70;3.30;;;31.70;61.30;;;;;;4957056;28;20086;-71
2023/05/14 09:03:36;;;;;;;3.45;3.15;;;30.30;63.70;;;;;;4956248;28;20070;-71
2023/05/14 09:06:03;;;;;;;3.58;3.28;;;30.10;63.40;;;;;;4956730;28;20058;-72
2023/05/14 09:08:28;;;;;;;4.15;3.38;;;30.70;64.10;;;;;;4956473;28;20042;-71
2023/05/14 09:10:54;;;;;;;4.20;3.25;;;31.60;61.90;;;;;;4954047;28;20481;-71
2023/05/14 09:13:19;;;;;;;3.15;2.85;;;32.30;61.90;;;;;;4956180;29;20063;-71
2023/05/14 09:15:46;;;;;;;5.47;3.20;;;33.70;60.00;;;;;;4953917;29;20027;-71
2023/05/14 09:18:12;;;;;;;4.28;3.42;;;35.40;58.50;;;;;;4955998;28;20023;-72
2023/05/14 09:20:38;;;;;;;3.38;2.67;;;36.00;56.90;;;;;;4955764;28;20094;-70
2023/05/14 09:23:03;;;;;;;3.40;3.10;;;36.30;55.20;;;;;;4955737;29;20148;-71
2023/05/14 09:25:31;;;;;;;3.63;3.13;;;34.70;56.10;;;;;;4955619;29;20036;-71
2023/05/14 09:28:00;;;;;;;3.72;3.13;;;34.10;56.80;;;;;;4955882;28;20146;-72
2023/05/14 09:30:26;;;;;;;3.85;3.45;;;34.30;56.00;;;;;;4955467;28;20023;-72
2023/05/14 09:32:53;;;;;;;3.50;3.20;;;32.90;56.80;;;;;;4954842;29;20499;-71
2023/05/14 09:35:21;;;;;;;3.40;2.97;;;31.60;58.80;;;;;;4955807;28;20031;-71
2023/05/14 09:37:49;;;;;;;3.50;3.13;;;32.10;58.90;;;;;;4956438;28;20027;-71
2023/05/14 09:40:16;;;;;;;3.45;2.90;;;32.40;57.90;;;;;;4955869;28;20035;-72
2023/05/14 09:42:41;;;;;;;3.53;3.03;;;32.90;58.20;;;;;;4954429;29;20059;-72
2023/05/14 09:45:08;;;;;;;4.20;3.28;;;32.60;57.70;;;;;;4954307;29;20062;-72
2023/05/14 09:47:35;;;;;;;3.88;3.00;;;32.60;58.60;;;;;;4956138;28;20348;-73
2023/05/14 09:50:00;;;;;;;3.88;3.33;;;31.50;59.30;;;;;;4954107;29;20444;-72
2023/05/14 09:52:26;;;;;;;3.30;3.00;;;30.80;60.90;;;;;;4954325;28;20028;-72
2023/05/14 09:54:52;;;;;;;3.72;3.35;;;31.70;59.90;;;;;;4956410;29;20035;-71
2023/05/14 09:57:18;;;;;;;3.83;3.50;;;31.20;59.70;;;;;;4955534;29;20027;-72
2023/05/14 09:59:44;;;;;;;5.22;3.50;;;29.80;61.60;;;;;;4955249;28;20023;-72
2023/05/14 10:02:29;;;;;;;4.63;3.60;;;30.30;61.20;;;;;;4955596;28;20035;-72
2023/05/14 10:04:59;;;;;;;3.72;3.25;;;29.70;62.00;;;;;;4954401;29;20514;-73
2023/05/14 10:07:40;;;;;;;4.40;3.67;;;28.90;61.40;;;;;;4942781;28;20426;-71
2023/05/14 10:10:10;;;;;;;5.35;3.53;;;27.80;63.30;;;;;;4938814;29;20024;-72
2023/05/14 10:12:39;;;;;;;4.35;3.88;;;26.20;66.30;;;;;;4937575;29;20492;-72
2023/05/14 10:15:15;;;;;;;5.22;4.20;;;25.20;68.60;;;;;;4951470;29;20118;-72
2023/05/14 10:17:46;;;;;;;5.05;4.45;;;24.30;70.70;;;;;;4935221;29;20218;-72
2023/05/14 10:20:15;;;;;;;11.52;9.90;;;23.50;72.70;;;;;;4935378;29;20075;-71
2023/05/14 10:22:41;;;;;;;6.50;4.65;;;23.00;73.60;;;;;;4937232;29;20480;-72
2023/05/14 10:25:07;;;;;;;;;;;22.00;76.10;;;;;;4940311;29;20039;-70
2023/05/14 10:27:33;;;;;;;5.07;4.57;;;21.70;77.20;;;;;;4938738;29;19914;-70
2023/05/14 10:29:58;;;;;;;5.78;5.22;;;21.50;78.50;;;;;;4951326;29;20027;-72
2023/05/14 10:32:25;;;;;;;5.00;4.25;;;21.70;78.50;;;;;;4958959;28;20374;-69
2023/05/14 10:34:52;;;;;;;5.18;4.00;;;21.90;77.10;;;;;;4957740;29;20135;-71
2023/05/14 10:37:25;;;;;;;5.25;4.45;;;22.10;77.80;;;;;;4958906;28;20596;-71
2023/05/14 10:39:55;;;;;;;6.32;4.38;;;22.70;76.70;;;;;;4957657;29;20043;-71
2023/05/14 10:42:26;;;;;;;5.05;4.32;;;22.00;78.40;;;;;;4959018;28;20027;-71
2023/05/14 10:45:00;;;;;;;5.47;4.32;;;21.70;79.10;;;;;;4958723;28;20035;-72
2023/05/14 10:47:27;;;;;;;9.50;4.63;;;21.50;79.30;;;;;;4957693;29;20027;-71
2023/05/14 10:49:56;;;;;;;5.35;3.90;;;21.50;79.90;;;;;;4957566;29;20038;-71
2023/05/14 10:52:22;;;;;;;7.07;4.47;;;21.40;80.00;;;;;;4958542;28;20054;-72
2023/05/14 10:54:56;;;;;;;5.75;4.13;;;20.70;82.80;;;;;;4958583;28;20031;-71
2023/05/14 10:57:25;;;;;;;5.32;4.15;;;20.60;82.60;;;;;;4958855;28;20058;-71
2023/05/14 10:59:53;;;;;;;5.18;4.10;;;20.80;83.10;;;;;;4958819;28;20106;-70
2023/05/14 11:02:26;;;;;;;4.95;4.32;;;21.00;82.40;;;;;;4958838;28;20039;-71
2023/05/14 11:05:05;;;;;;;5.07;4.50;;;21.00;82.00;;;;;;4958855;29;20023;-71
2023/05/14 11:07:33;;;;;;;5.68;4.57;;;21.10;82.10;;;;;;4958433;28;20027;-71
2023/05/14 11:10:01;;;;;;;7.03;5.13;;;20.90;82.90;;;;;;4956922;29;20477;-71
2023/05/14 11:12:27;;;;;;;6.13;5.13;;;21.20;82.30;;;;;;4958360;28;20201;-71
2023/05/14 11:14:55;;;;;;;5.18;4.60;;;21.50;81.40;;;;;;4956773;29;20373;-71
2023/05/14 11:17:21;;;;;;;5.25;4.22;;;21.80;80.20;;;;;;4958091;29;20401;-70
2023/05/14 11:19:47;;;;;;;11.13;8.82;;;21.70;80.90;;;;;;4956887;29;20030;-71
2023/05/14 11:22:13;;;;;;;9.95;6.65;;;21.90;79.80;;;;;;4955926;28;20031;-70
2023/05/14 11:24:42;;;;;;;4.65;4.00;;;22.20;80.10;;;;;;4957980;28;20023;-68
2023/05/14 11:27:08;;;;;;;5.10;4.28;;;22.30;79.80;;;;;;4956757;28;20515;-71
2023/05/14 11:29:35;;;;;;;8.80;5.55;;;22.30;78.80;;;;;;4949338;28;20024;-71
2023/05/14 11:32:05;;;;;;;8.05;4.15;;;22.30;80.50;;;;;;4937430;29;20083;-71
2023/05/14 11:34:31;;;;;;;6.53;4.07;;;22.50;79.20;;;;;;4938079;29;20035;-69
2023/05/14 11:36:56;;;;;;;6.13;4.20;;;22.60;78.20;;;;;;4938985;29;20118;-69
2023/05/14 11:39:22;;;;;;;3.83;3.30;;;22.50;79.40;;;;;;4938967;29;20059;-71
2023/05/14 11:41:48;;;;;;;7.45;3.40;;;22.60;78.00;;;;;;4946283;29;20086;-69
2023/05/14 11:44:13;;;;;;;4.95;3.25;;;22.40;78.00;;;;;;4951934;29;20115;-70
2023/05/14 11:46:39;;;;;;;3.55;3.25;;;22.40;77.50;;;;;;4953895;29;20031;-70
2023/05/14 11:49:05;;;;;;;4.75;3.22;;;22.50;78.80;;;;;;4938405;29;20385;-71
2023/05/14 11:51:31;;;;;;;6.15;3.97;;;22.70;78.60;;;;;;4956508;29;20031;-70
2023/05/14 11:53:59;;;;;;;4.15;3.75;;;22.50;78.50;;;;;;4947595;29;20034;-70
2023/05/14 11:56:25;;;;;;;11.65;5.28;;;22.40;79.00;;;;;;4957807;28;20031;-71
2023/05/14 11:58:57;;;;;;;14.80;6.13;;;22.50;78.50;;;;;;4954421;29;20036;-71
2023/05/14 12:01:22;;;;;;;5.13;3.63;;;22.50;78.00;;;;;;4937935;29;20638;-70
2023/05/14 12:03:49;;;;;;;6.35;3.38;;;22.70;77.80;;;;;;4937865;29;20032;-71
2023/05/14 12:06:15;;;;;;;5.30;3.60;;;22.90;78.00;;;;;;4939053;29;20059;-71
2023/05/14 12:08:40;;;;;;;4.57;3.60;;;22.70;78.00;;;;;;4938328;29;20060;-70
2023/05/14 12:11:08;;;;;;;4.18;3.67;;;22.70;77.90;;;;;;4936952;29;20036;-70
2023/05/14 12:13:35;;;;;;;8.13;3.88;;;22.70;77.20;;;;;;4936851;29;20390;-70
2023/05/14 12:16:01;;;;;;;4.47;3.45;;;22.20;77.70;;;;;;4937988;29;20106;-70
2023/05/14 12:18:27;;;;;;;;;;;21.90;78.90;;;;;;4939347;29;20105;-71
2023/05/14 12:20:53;;;;;;;5.17;4.00;;;21.90;79.20;;;;;;4949884;28;19917;-71
2023/05/14 12:23:31;;;;;;;4.10;3.70;;;21.90;79.30;;;;;;4952972;29;20123;-71
2023/05/14 12:26:05;;;;;;;4.45;3.75;;;22.20;79.20;;;;;;4936920;29;20031;-70
2023/05/14 12:28:31;;;;;;;4.75;3.78;;;22.30;78.60;;;;;;4938212;29;20378;-71
2023/05/14 12:30:58;;;;;;;4.68;3.63;;;22.50;78.80;;;;;;4957477;28;20392;-70
2023/05/14 12:33:25;;;;;;;3.80;3.42;;;22.50;78.60;;;;;;4957382;28;20037;-70
2023/05/14 12:35:52;;;;;;;5.28;3.65;;;22.40;77.80;;;;;;4957772;28;20167;-71
2023/05/14 12:38:18;;;;;;;7.03;3.80;;;22.40;79.00;;;;;;4957416;28;20031;-71
2023/05/14 12:40:44;;;;;;;4.03;3.60;;;22.20;80.30;;;;;;4955678;28;20473;-73
2023/05/14 12:43:09;;;;;;;5.95;4.15;;;22.10;80.80;;;;;;4956962;29;20035;-73
2023/05/14 12:45:35;;;;;;;6.57;4.10;;;21.80;81.50;;;;;;4955273;28;20035;-72
2023/05/14 12:48:00;;;;;;;4.32;3.92;;;21.80;81.10;;;;;;4956895;29;20058;-72
2023/05/14 12:50:26;;;;;;;4.68;4.10;;;21.80;81.50;;;;;;4955889;28;20049;-73
2023/05/14 12:52:51;;;;;;;5.82;3.92;;;21.80;81.30;;;;;;4956192;29;20118;-73
2023/05/14 12:55:17;;;;;;;4.53;3.25;;;21.80;81.30;;;;;;4958001;28;20035;-73
2023/05/14 12:57:42;;;;;;;4.38;3.75;;;21.90;82.10;;;;;;4959360;28;20047;-73
2023/05/14 13:00:10;;;;;;;6.63;4.07;;;22.10;81.90;;;;;;4953722;28;20070;-73
2023/05/14 13:02:35;;;;;;;5.35;3.80;;;22.10;80.70;;;;;;4958763;29;20039;-73
2023/05/14 13:05:04;;;;;;;6.35;4.00;;;22.20;81.10;;;;;;4959229;29;20144;-73
2023/05/14 13:07:30;;;;;;;4.22;3.78;;;22.10;80.50;;;;;;4955920;28;20046;-72
2023/05/14 13:09:56;;;;;;;5.15;3.63;;;22.10;81.10;;;;;;4954251;29;20488;-72
2023/05/14 13:12:22;;;;;;;7.38;3.45;;;21.90;81.30;;;;;;4955676;29;20031;-72
2023/05/14 13:14:48;;;;;;;4.90;3.30;;;22.20;79.10;;;;;;4953786;29;20027;-72
2023/05/14 13:17:14;;;;;;;5.03;3.42;;;22.00;79.30;;;;;;4954308;29;20031;-72
2023/05/14 13:19:39;;;;;;;4.32;3.63;;;22.10;79.50;;;;;;4955374;29;20034;-73
2023/05/14 13:22:05;;;;;;;5.35;3.90;;;22.10;79.10;;;;;;4954478;29;20027;-73
2023/05/14 13:24:30;;;;;;;4.05;3.22;;;22.00;78.60;;;;;;4954775;29;20444;-73
2023/05/14 13:26:56;;;;;;;4.38;3.30;;;22.00;78.10;;;;;;4955964;29;20104;-73
2023/05/14 13:29:21;;;;;;;4.68;3.83;;;22.00;78.60;;;;;;4954251;29;20429;-72
2023/05/14 13:31:47;;;;;;;8.10;4.20;;;21.90;78.40;;;;;;4955847;28;20027;-72
2023/05/14 13:34:13;;;;;;;5.72;3.88;;;21.80;79.20;;;;;;4955760;29;20074;-72
2023/05/14 13:36:41;;;;;;;5.00;3.58;;;21.80;79.80;;;;;;4954529;29;20027;-73
2023/05/14 13:39:06;;;;;;;4.70;3.97;;;21.70;80.20;;;;;;4955905;28;20031;-72
2023/05/14 13:41:36;;;;;;;4.65;3.50;;;21.80;80.70;;;;;;4954134;28;20022;-72
2023/05/14 13:44:02;;;;;;;4.63;3.75;;;21.80;80.50;;;;;;4954374;29;20050;-72
2023/05/14 13:46:28;;;;;;;6.50;4.55;;;21.50;81.10;;;;;;4954344;29;20473;-73
2023/05/14 13:48:53;;;;;;;5.43;3.80;;;21.40;82.40;;;;;;4956077;29;20060;-72
2023/05/14 13:51:19;;;;;;;4.30;3.47;;;21.20;83.40;;;;;;4955916;28;20020;-73
2023/05/14 13:53:44;;;;;;;8.75;4.78;;;21.20;82.50;;;;;;4955845;29;20110;-73
2023/05/14 13:56:10;;;;;;;4.53;3.33;;;21.40;82.90;;;;;;4954556;29;20027;-73
2023/05/14 13:58:35;;;;;;;3.70;3.25;;;21.30;81.20;;;;;;4953983;28;20405;-73
2023/05/14 14:01:01;;;;;;;5.45;3.65;;;21.10;82.60;;;;;;4954012;28;20039;-72
2023/05/14 14:03:26;;;;;;;6.07;3.50;;;21.30;81.50;;;;;;4954195;29;20035;-73
2023/05/14 14:05:52;;;;;;;5.30;3.22;;;21.40;80.70;;;;;;4954415;29;20027;-71
2023/05/14 14:08:18;;;;;;;4.28;3.45;;;21.60;80.30;;;;;;4954196;29;20027;-72
2023/05/14 14:10:44;;;;;;;4.38;3.58;;;21.80;80.30;;;;;;4955446;28;20092;-71
2023/05/14 14:13:09;;;;;;;4.00;3.55;;;21.80;79.20;;;;;;4955819;29;20042;-73
2023/05/14 14:15:35;;;;;;;4.57;3.53;;;21.70;80.20;;;;;;4955372;28;20389;-73
2023/05/14 14:18:01;;;;;;;4.40;3.15;;;21.90;80.90;;;;;;4954152;29;20035;-72
2023/05/14 14:20:27;;;;;;;5.03;3.78;;;22.30;80.10;;;;;;4956263;28;20034;-73
2023/05/14 14:22:53;;;;;;;3.85;3.03;;;22.30;79.00;;;;;;4955519;29;20028;-72
2023/05/14 14:25:19;;;;;;;6.68;3.78;;;22.40;77.60;;;;;;4955609;28;20038;-72
2023/05/14 14:27:45;;;;;;;3.75;2.70;;;22.50;77.40;;;;;;4955925;29;20038;-72
2023/05/14 14:30:14;;;;;;;4.70;2.97;;;22.60;77.20;;;;;;4956162;29;20031;-73
2023/05/14 14:32:47;;;;;;;4.65;2.92;;;22.40;78.90;;;;;;4957709;28;20015;-73
2023/05/14 14:35:14;;;;;;;3.20;2.90;;;22.40;78.90;;;;;;4963572;28;20027;-72
2023/05/14 14:37:42;;;;;;;3.60;3.15;;;22.30;80.00;;;;;;4962407;28;20061;-73
2023/05/14 14:40:10;;;;;;;5.18;3.28;;;22.10;80.90;;;;;;4962368;28;20028;-72
2023/05/14 14:42:37;;;;;;;5.50;3.38;;;21.80;81.70;;;;;;4956994;28;20468;-72
2023/05/14 14:45:06;;;;;;;3.42;2.95;;;21.50;82.30;;;;;;4956156;29;20395;-72
2023/05/14 14:47:31;;;;;;;4.25;3.28;;;21.10;83.00;;;;;;4954994;29;20031;-72
2023/05/14 14:49:57;;;;;;;3.42;3.03;;;20.70;83.80;;;;;;4956547;29;20381;-72
2023/05/14 14:52:24;;;;;;;3.42;2.97;;;20.50;85.00;;;;;;4954033;28;20047;-72
2023/05/14 14:54:50;;;;;;;4.47;2.97;;;20.30;85.50;;;;;;4954895;29;20027;-72
2023/05/14 14:57:15;;;;;;;4.80;2.90;;;20.30;85.10;;;;;;4956322;29;20029;-72
2023/05/14 14:59:41;;;;;;;8.13;6.75;;;20.40;85.40;;;;;;4955334;29;20039;-73
2023/05/14 15:02:08;;;;;;;5.80;4.53;;;20.30;85.30;;;;;;4955191;28;20515;-73
2023/05/14 15:04:34;;;;;;;4.15;3.20;;;20.20;85.50;;;;;;4955559;28;20071;-72
2023/05/14 15:07:00;;;;;;;4.55;3.70;;;20.10;85.80;;;;;;4955419;28;20028;-73
2023/05/14 15:09:27;;;;;;;3.60;3.30;;;19.90;86.10;;;;;;4953494;28;20094;-70
2023/05/14 15:11:54;;;;;;;9.00;6.68;;;19.90;86.50;;;;;;4954921;29;20030;-70
2023/05/14 15:14:19;;;;;;;3.72;3.33;;;19.90;86.60;;;;;;4949986;29;20032;-70
2023/05/14 15:16:45;;;;;;;3.50;2.83;;;20.00;85.70;;;;;;4943966;29;20106;-70
2023/05/14 15:19:10;;;;;;;5.60;3.30;;;19.90;86.00;;;;;;4957074;28;20027;-71
2023/05/14 15:21:36;;;;;;;4.25;2.90;;;19.80;86.40;;;;;;4958170;28;20115;-70
2023/05/14 15:24:05;;;;;;;6.10;3.10;;;20.00;85.90;;;;;;4958486;29;20070;-71
2023/05/14 15:26:31;;;;;;;9.43;7.97;;;20.20;86.10;;;;;;4955420;29;20062;-71
2023/05/14 15:28:57;;;;;;;4.20;3.58;;;20.30;85.50;;;;;;4941852;29;20456;-71
2023/05/14 15:31:23;;;;;;;3.42;3.08;;;20.50;85.50;;;;;;4954299;28;20067;-67
2023/05/14 15:33:51;;;;;;;10.45;6.35;;;20.70;83.90;;;;;;4956734;29;20078;-69
2023/05/14 15:36:16;;;;;;;3.70;3.20;;;20.90;82.00;;;;;;4957795;28;20530;-67
2023/05/14 15:38:42;;;;;;;2.92;2.60;;;21.00;81.20;;;;;;4957573;29;20106;-67
2023/05/14 15:41:07;;;;;;;3.58;2.88;;;21.10;81.70;;;;;;4957401;28;20114;-68
2023/05/14 15:43:33;;;;;;;4.45;2.58;;;21.10;82.10;;;;;;4957791;29;20062;-68
2023/05/14 15:45:58;;;;;;;5.18;2.78;;;21.10;82.50;;;;;;4958094;29;20042;-68
2023/05/14 15:48:24;;;;;;;4.65;3.30;;;21.20;82.70;;;;;;4958358;29;20067;-67
2023/05/14 15:50:50;;;;;;;4.28;3.20;;;20.90;83.50;;;;;;4958207;28;20082;-68
2023/05/14 15:53:16;;;;;;;3.78;3.10;;;20.90;83.80;;;;;;4958286;29;20031;-67
2023/05/14 15:55:41;;;;;;;5.50;3.13;;;21.00;84.30;;;;;;4958089;29;20035;-67
2023/05/14 15:58:07;;;;;;;3.80;3.05;;;20.90;84.20;;;;;;4956388;29;20042;-68
2023/05/14 16:00:33;;;;;;;3.97;2.90;;;20.60;85.20;;;;;;4957183;28;20049;-68
2023/05/14 16:02:58;;;;;;;3.70;2.92;;;20.40;86.10;;;;;;4954492;29;20090;-69
2023/05/14 16:05:24;;;;;;;5.05;3.53;;;20.40;86.70;;;;;;4946631;29;20123;-69
2023/05/14 16:07:50;;;;;;;5.03;3.30;;;20.30;87.00;;;;;;4952684;29;20099;-67
2023/05/14 16:10:15;;;;;;;7.65;3.65;;;20.10;88.70;;;;;;4946701;29;20486;-69
2023/05/14 16:12:41;;;;;;;5.85;4.28;;;20.00;93.50;;;;;;4937453;29;20043;-70
2023/05/14 16:15:08;;;;;;;5.80;4.15;;;19.80;96.30;;;;;;4938169;29;20035;-71
2023/05/14 16:17:33;;;;;;;8.55;6.75;;;19.40;97.90;;;;;;4938539;29;20111;-69
2023/05/14 16:20:00;;;;;;;4.13;3.72;;;19.10;97.60;;;;;;4938154;29;20518;-70
2023/05/14 16:22:26;;;;;;;5.10;3.72;;;19.00;98.30;;;;;;4944378;29;20038;-70
2023/05/14 16:24:51;;;;;;;;;;;18.80;98.60;;;;;;4952265;29;20037;-68
2023/05/14 16:27:17;;;;;;;5.65;3.63;;;18.70;98.50;;;;;;4957065;28;20005;-68
2023/05/14 16:29:43;;;;;;;4.25;3.83;;;18.60;99.90;;;;;;4957135;29;20127;-69
2023/05/14 16:32:09;;;;;;;4.45;3.60;;;18.60;99.90;;;;;;4956802;28;20452;-69
2023/05/14 16:34:34;;;;;;;4.63;3.45;;;18.60;99.90;;;;;;4957072;29;20385;-71
2023/05/14 16:37:00;;;;;;;4.13;3.38;;;18.50;99.90;;;;;;4958963;29;20028;-69
2023/05/14 16:39:25;;;;;;;4.40;3.28;;;18.50;99.90;;;;;;4965010;29;20119;-69
2023/05/14 16:41:51;;;;;;;4.97;3.95;;;18.40;99.90;;;;;;4969430;29;20393;-69
2023/05/14 16:44:16;;;;;;;6.53;4.18;;;18.50;99.90;;;;;;4961372;29;20027;-71